createdAt,value
2022-11-26T00:00:19.339Z,58.98
2022-11-26T00:02:48.601Z,59.46
2022-11-26T00:05:16.977Z,59.18
2022-11-26T00:07:54.875Z,59.51
2022-11-26T00:10:23.906Z,59.64
2022-11-26T00:12:51.723Z,59.20
2022-11-26T00:15:21.352Z,59.58
2022-11-26T00:17:51.176Z,59.43
2022-11-26T00:20:19.014Z,59.68
2022-11-26T00:22:48.132Z,59.32
2022-11-26T00:25:20.500Z,59.48
2022-11-26T00:27:48.344Z,59.25
2022-11-26T00:30:17.872Z,59.67
2022-11-26T00:32:45.561Z,59.47
2022-11-26T00:35:14.716Z,59.48
2022-11-26T00:37:43.607Z,59.10
2022-11-26T00:40:18.932Z,59.92
2022-11-26T00:42:46.771Z,59.67
2022-11-26T00:45:21.843Z,59.74
2022-11-26T00:47:49.630Z,59.61
2022-11-26T00:50:20.299Z,59.16
2022-11-26T00:52:48.474Z,59.53
2022-11-26T00:55:20.777Z,59.09
2022-11-26T00:57:48.468Z,59.33
2022-11-26T01:00:17.787Z,59.56
2022-11-26T01:02:45.522Z,59.49
2022-11-26T01:05:13.403Z,59.08
2022-11-26T01:07:42.728Z,59.04
2022-11-26T01:10:16.744Z,59.45
2022-11-26T01:12:44.375Z,59.71
2022-11-26T01:15:12.445Z,59.45
2022-11-26T01:17:40.168Z,59.67
2022-11-26T01:20:18.125Z,59.57
2022-11-26T01:22:48.697Z,59.79
2022-11-26T01:25:17.688Z,59.29
2022-11-26T01:27:51.012Z,59.44
2022-11-26T01:30:31.184Z,59.83
2022-11-26T01:33:04.189Z,59.72
2022-11-26T01:35:40.829Z,59.38
2022-11-26T01:38:15.982Z,59.48
2022-11-26T01:41:04.991Z,59.40
2022-11-26T01:43:35.782Z,59.26
2022-11-26T01:46:05.702Z,59.53
2022-11-26T01:48:39.573Z,59.47
2022-11-26T01:51:13.666Z,59.11
2022-11-26T01:53:52.764Z,59.47
2022-11-26T01:56:33.873Z,59.62
2022-11-26T01:59:06.013Z,59.59
2022-11-26T02:01:38.962Z,59.58
2022-11-26T02:04:22.117Z,59.36
2022-11-26T02:07:10.622Z,59.38
2022-11-26T02:10:13.378Z,59.82
2022-11-26T02:12:50.693Z,59.39
2022-11-26T02:15:18.581Z,59.72
2022-11-26T02:18:00.769Z,59.60
2022-11-26T02:21:07.758Z,60.00
2022-11-26T02:24:01.357Z,59.52
2022-11-26T02:27:04.876Z,60.04
2022-11-26T02:30:19.616Z,59.91
2022-11-26T02:32:57.485Z,59.94
2022-11-26T02:35:41.562Z,60.14
2022-11-26T02:38:41.263Z,60.14
2022-11-26T02:44:48.348Z,60.17
2022-11-26T02:47:33.206Z,59.74
2022-11-26T02:53:17.595Z,60.08
2022-11-26T02:55:48.322Z,59.73
2022-11-26T02:58:16.332Z,60.11
2022-11-26T03:00:49.764Z,60.12
2022-11-26T03:03:24.259Z,60.00
2022-11-26T03:05:58.721Z,60.54
2022-11-26T03:08:31.008Z,60.49
2022-11-26T03:11:01.282Z,59.89
2022-11-26T03:13:31.959Z,60.11
2022-11-26T03:16:08.053Z,60.38
2022-11-26T03:18:36.327Z,60.23
2022-11-26T03:21:11.875Z,60.99
2022-11-26T03:23:39.943Z,60.58
2022-11-26T03:26:12.442Z,60.40
2022-11-26T03:28:43.355Z,61.19
2022-11-26T03:31:13.776Z,61.30
2022-11-26T03:33:55.581Z,61.11
2022-11-26T03:36:37.576Z,61.48
2022-11-26T03:39:27.036Z,60.90
2022-11-26T03:42:41.607Z,61.44
2022-11-26T03:45:18.022Z,61.19
2022-11-26T03:47:45.964Z,61.08
2022-11-26T03:50:13.960Z,61.14
2022-11-26T03:52:46.330Z,61.15
2022-11-26T03:55:15.172Z,60.90
2022-11-26T03:57:42.924Z,61.56
2022-11-26T04:00:11.502Z,61.15
2022-11-26T04:02:39.313Z,61.48
2022-11-26T04:05:07.887Z,60.77
2022-11-26T04:07:35.680Z,61.34
2022-11-26T04:10:05.370Z,61.26
2022-11-26T04:12:33.168Z,61.20
2022-11-26T04:15:00.819Z,61.41
2022-11-26T04:17:28.521Z,61.17
2022-11-26T04:19:56.203Z,61.34
2022-11-26T04:22:23.979Z,61.36
2022-11-26T04:24:51.721Z,62.09
2022-11-26T04:27:20.898Z,61.80
2022-11-26T04:29:48.654Z,61.73
2022-11-26T04:32:16.365Z,62.03
2022-11-26T04:34:44.004Z,62.20
2022-11-26T04:37:11.688Z,61.91
2022-11-26T04:39:39.340Z,62.07
2022-11-26T04:42:07.088Z,62.18
2022-11-26T04:44:36.197Z,62.63
2022-11-26T04:47:04.180Z,62.31
2022-11-26T04:49:31.853Z,62.25
2022-11-26T04:51:59.536Z,61.69
2022-11-26T04:54:27.157Z,62.17
2022-11-26T04:56:54.848Z,61.69
2022-11-26T04:59:22.601Z,61.98
2022-11-26T05:01:51.720Z,61.82
2022-11-26T05:04:20.167Z,62.11
2022-11-26T05:06:47.838Z,62.27
2022-11-26T05:09:15.640Z,61.59
2022-11-26T05:11:43.274Z,62.12
2022-11-26T05:14:10.979Z,61.82
2022-11-26T05:16:38.683Z,61.80
2022-11-26T05:19:07.798Z,61.62
2022-11-26T05:21:35.463Z,62.19
2022-11-26T05:24:03.263Z,61.64
2022-11-26T05:26:31.025Z,62.15
2022-11-26T05:28:58.717Z,61.72
2022-11-26T05:31:26.353Z,61.63
2022-11-26T05:33:54.127Z,61.75
2022-11-26T05:36:23.208Z,61.19
2022-11-26T05:38:50.867Z,61.49
2022-11-26T05:41:18.524Z,61.71
2022-11-26T05:43:46.260Z,61.67
2022-11-26T05:46:13.948Z,61.39
2022-11-26T05:48:41.676Z,61.50
2022-11-26T05:51:09.825Z,61.55
2022-11-26T05:53:38.901Z,61.42
2022-11-26T05:56:06.973Z,61.61
2022-11-26T05:58:34.787Z,61.72
2022-11-26T06:01:02.479Z,61.64
2022-11-26T06:03:30.224Z,61.57
2022-11-26T06:05:57.855Z,61.69
2022-11-26T06:08:25.569Z,61.64
2022-11-26T06:10:54.592Z,61.48
2022-11-26T06:13:22.259Z,61.41
2022-11-26T06:15:50.063Z,61.82
2022-11-26T06:18:18.199Z,61.60
2022-11-26T06:20:45.900Z,61.69
2022-11-26T06:23:13.601Z,61.92
2022-11-26T06:25:41.787Z,62.38
2022-11-26T06:28:11.057Z,62.11
2022-11-26T06:30:38.756Z,62.16
2022-11-26T06:33:06.665Z,62.13
2022-11-26T06:35:44.622Z,62.44
2022-11-26T06:38:12.404Z,62.52
2022-11-26T06:40:40.065Z,62.72
2022-11-26T06:43:08.394Z,62.31
2022-11-26T06:45:37.617Z,62.40
2022-11-26T06:48:05.747Z,62.41
2022-11-26T06:50:52.890Z,61.90
2022-11-26T06:53:23.120Z,62.34
2022-11-26T06:55:50.899Z,61.99
2022-11-26T06:58:18.757Z,61.77
2022-11-26T07:00:47.817Z,62.15
2022-11-26T07:03:19.762Z,62.26
2022-11-26T07:05:50.237Z,62.32
2022-11-26T07:08:17.978Z,61.45
2022-11-26T07:10:49.042Z,62.05
2022-11-26T07:13:17.174Z,61.76
2022-11-26T07:15:45.095Z,62.02
2022-11-26T07:18:14.278Z,62.24
2022-11-26T07:20:42.042Z,62.05
2022-11-26T07:23:09.773Z,61.69
2022-11-26T07:25:37.809Z,62.00
2022-11-26T07:28:05.727Z,61.69
2022-11-26T07:30:33.624Z,61.63
2022-11-26T07:33:01.375Z,61.45
2022-11-26T07:35:33.004Z,61.46
2022-11-26T07:38:00.719Z,61.38
2022-11-26T07:40:28.475Z,61.82
2022-11-26T07:42:56.268Z,61.18
2022-11-26T07:45:24.090Z,61.09
2022-11-26T07:47:51.771Z,60.75
2022-11-26T07:50:19.576Z,60.82
2022-11-26T07:52:48.664Z,61.01
2022-11-26T07:55:16.887Z,60.77
2022-11-26T07:57:44.646Z,60.55
2022-11-26T08:00:13.261Z,60.29
2022-11-26T08:02:41.153Z,60.00
2022-11-26T08:05:09.083Z,59.68
2022-11-26T08:07:36.879Z,59.28
2022-11-26T08:10:07.156Z,59.15
2022-11-26T08:12:34.833Z,59.32
2022-11-26T08:15:02.789Z,59.04
2022-11-26T08:17:30.600Z,58.65
2022-11-26T08:19:58.277Z,57.67
2022-11-26T08:22:25.964Z,56.59
2022-11-26T08:24:53.891Z,55.65
2022-11-26T08:27:23.014Z,54.82
2022-11-26T08:29:50.704Z,53.95
2022-11-26T08:32:18.495Z,52.96
2022-11-26T08:34:46.137Z,51.59
2022-11-26T08:37:13.901Z,50.77
2022-11-26T08:39:41.670Z,49.69
2022-11-26T08:42:09.368Z,49.00
2022-11-26T08:44:38.593Z,48.31
2022-11-26T08:47:06.482Z,47.03
2022-11-26T08:49:34.317Z,46.09
2022-11-26T08:52:02.172Z,44.95
2022-11-26T08:54:29.965Z,44.10
2022-11-26T08:56:57.764Z,43.50
2022-11-26T08:59:25.471Z,42.00
2022-11-26T09:01:55.169Z,41.29
2022-11-26T09:04:23.090Z,40.40
2022-11-26T09:06:50.903Z,39.73
2022-11-26T09:09:18.586Z,38.22
2022-11-26T09:11:48.498Z,37.58
2022-11-26T09:14:16.908Z,36.40
2022-11-26T09:16:44.836Z,35.33
2022-11-26T09:19:14.534Z,34.22
2022-11-26T09:21:42.569Z,33.74
2022-11-26T09:24:10.587Z,32.57
2022-11-26T09:26:38.516Z,31.88
2022-11-26T09:29:06.400Z,31.29
2022-11-26T09:31:34.267Z,31.31
2022-11-26T09:34:02.462Z,31.50
2022-11-26T09:36:31.534Z,31.19
2022-11-26T09:39:00.008Z,30.69
2022-11-26T09:41:39.724Z,29.73
2022-11-26T09:44:40.926Z,28.47
2022-11-26T09:47:13.217Z,28.84
2022-11-26T09:49:47.165Z,28.47
2022-11-26T09:52:16.888Z,28.20
2022-11-26T09:54:44.712Z,27.83
2022-11-26T09:57:19.591Z,28.03
2022-11-26T09:59:47.610Z,27.64
2022-11-26T10:02:15.610Z,27.40
2022-11-26T10:04:43.511Z,27.08
2022-11-26T10:07:21.974Z,27.41
2022-11-26T10:09:54.868Z,27.87
2022-11-26T10:12:28.108Z,28.39
2022-11-26T10:14:58.193Z,28.14
2022-11-26T10:17:30.849Z,28.52
2022-11-26T10:20:09.859Z,28.66
2022-11-26T10:22:40.163Z,28.86
2022-11-26T10:25:14.443Z,29.24
2022-11-26T10:27:42.956Z,28.82
2022-11-26T10:30:17.447Z,28.97
2022-11-26T10:32:45.322Z,29.02
2022-11-26T10:35:15.459Z,29.30
2022-11-26T10:37:44.653Z,28.98
2022-11-26T10:40:21.369Z,29.50
2022-11-26T10:42:56.791Z,29.76
2022-11-26T10:45:26.499Z,30.28
2022-11-26T10:47:54.293Z,30.75
2022-11-26T10:53:21.360Z,31.61
2022-11-26T10:55:49.103Z,31.75
2022-11-26T10:58:17.882Z,32.47
2022-11-26T11:00:47.084Z,32.15
2022-11-26T11:03:16.881Z,32.53
2022-11-26T11:05:44.904Z,32.63
2022-11-26T11:08:14.753Z,31.99
2022-11-26T11:10:54.355Z,31.68
2022-11-26T11:13:22.190Z,31.67
2022-11-26T11:15:50.206Z,31.83
2022-11-26T11:18:20.214Z,31.82
2022-11-26T11:20:53.453Z,31.88
2022-11-26T11:23:34.723Z,31.87
2022-11-26T11:26:11.842Z,32.15
2022-11-26T11:28:42.708Z,32.88
2022-11-26T11:31:12.446Z,33.13
2022-11-26T11:33:40.388Z,33.67
2022-11-26T11:36:20.228Z,34.71
2022-11-26T11:38:49.493Z,34.88
2022-11-26T11:41:25.561Z,35.43
2022-11-26T11:43:57.951Z,35.50
2022-11-26T11:46:38.629Z,35.75
2022-11-26T11:49:15.348Z,36.07
2022-11-26T11:51:46.001Z,37.05
2022-11-26T11:54:16.833Z,37.67
2022-11-26T11:56:50.542Z,38.10
2022-11-26T11:59:58.468Z,38.38
2022-11-26T12:02:35.140Z,39.22
2022-11-26T12:05:15.362Z,39.12
2022-11-26T12:07:43.761Z,39.25
2022-11-26T12:10:15.142Z,39.72
2022-11-26T12:12:47.683Z,39.27
2022-11-26T12:15:23.435Z,39.41
2022-11-26T12:17:52.957Z,39.18
2022-11-26T12:20:23.824Z,39.66
2022-11-26T12:22:53.912Z,40.13
2022-11-26T12:25:25.706Z,40.73
2022-11-26T12:27:58.178Z,40.91
2022-11-26T12:30:29.525Z,41.22
2022-11-26T12:33:00.668Z,41.51
2022-11-26T12:35:29.694Z,41.63
2022-11-26T12:37:59.174Z,41.63
2022-11-26T12:40:31.646Z,41.81
2022-11-26T12:43:03.205Z,41.73
2022-11-26T12:45:43.797Z,42.02
2022-11-26T12:48:17.433Z,42.34
2022-11-26T12:50:48.073Z,42.96
2022-11-26T12:53:18.608Z,43.18
2022-11-26T12:55:49.687Z,43.04
2022-11-26T12:58:20.703Z,43.52
2022-11-26T13:00:49.653Z,43.77
2022-11-26T13:03:18.853Z,44.00
2022-11-26T13:05:51.827Z,44.35
2022-11-26T13:08:35.476Z,44.15
2022-11-26T13:11:11.758Z,44.30
2022-11-26T13:13:44.948Z,44.25
2022-11-26T13:16:16.915Z,44.44
2022-11-26T13:18:45.793Z,44.55
2022-11-26T13:21:24.411Z,44.71
2022-11-26T13:24:00.756Z,45.29
2022-11-26T13:26:36.340Z,45.65
2022-11-26T13:29:16.509Z,45.94
2022-11-26T13:31:51.934Z,46.02
2022-11-26T13:34:25.874Z,45.67
2022-11-26T13:37:09.208Z,45.71
2022-11-26T13:39:47.621Z,45.81
2022-11-26T13:42:23.241Z,46.10
2022-11-26T13:45:02.593Z,46.12
2022-11-26T13:47:31.399Z,45.52
2022-11-26T13:50:00.860Z,45.93
2022-11-26T13:52:30.768Z,45.72
2022-11-26T13:54:59.840Z,46.30
2022-11-26T13:57:32.682Z,46.24
2022-11-26T14:00:01.959Z,46.52
2022-11-26T14:02:47.405Z,46.59
2022-11-26T14:05:16.119Z,47.04
2022-11-26T14:07:44.199Z,46.76
2022-11-26T14:10:47.872Z,47.16
2022-11-26T14:13:16.285Z,47.34
2022-11-26T14:15:59.438Z,46.99
2022-11-26T14:19:07.146Z,47.32
2022-11-26T14:21:58.467Z,46.90
2022-11-26T14:24:54.234Z,47.44
2022-11-26T14:27:22.892Z,47.46
2022-11-26T14:29:55.000Z,47.04
2022-11-26T14:32:26.267Z,47.40
2022-11-26T14:34:54.580Z,47.33
2022-11-26T14:37:23.086Z,47.75
2022-11-26T14:39:58.847Z,47.85
2022-11-26T14:42:26.808Z,48.13
2022-11-26T14:45:13.578Z,48.14
2022-11-26T14:47:45.632Z,48.49
2022-11-26T14:50:14.650Z,49.02
2022-11-26T14:52:43.132Z,49.02
2022-11-26T14:55:17.573Z,49.14
2022-11-26T14:57:46.896Z,49.30
2022-11-26T15:00:23.187Z,49.80
2022-11-26T15:02:52.865Z,49.91
2022-11-26T15:05:27.465Z,50.20
2022-11-26T15:08:00.215Z,50.21
2022-11-26T15:10:28.658Z,50.49
2022-11-26T15:12:57.486Z,50.01
2022-11-26T15:15:25.580Z,50.53
2022-11-26T15:17:57.380Z,50.97
2022-11-26T15:20:25.249Z,50.74
2022-11-26T15:22:53.544Z,51.57
2022-11-26T15:25:22.930Z,51.02
2022-11-26T15:27:55.008Z,51.74
2022-11-26T15:30:24.475Z,51.83
2022-11-26T15:32:59.595Z,51.89
2022-11-26T15:35:27.748Z,52.00
2022-11-26T15:37:55.903Z,52.64
2022-11-26T15:40:24.822Z,52.52
2022-11-26T15:43:10.822Z,52.61
2022-11-26T15:45:41.479Z,52.20
2022-11-26T15:48:27.628Z,52.61
2022-11-26T15:50:58.867Z,52.87
2022-11-26T15:53:28.071Z,52.63
2022-11-26T15:55:56.105Z,52.45
2022-11-26T15:58:27.273Z,52.98
2022-11-26T16:00:57.003Z,52.67
2022-11-26T16:03:46.695Z,52.91
2022-11-26T16:06:29.753Z,53.05
2022-11-26T16:08:59.855Z,53.19
2022-11-26T16:11:28.517Z,53.20
2022-11-26T16:13:56.440Z,53.37
2022-11-26T16:16:25.187Z,53.46
2022-11-26T16:18:55.783Z,53.64
2022-11-26T16:21:24.985Z,53.05
2022-11-26T16:23:53.497Z,53.73
2022-11-26T16:26:21.258Z,53.78
2022-11-26T16:28:49.269Z,53.60
2022-11-26T16:31:17.593Z,53.83
2022-11-26T16:33:45.911Z,54.74
2022-11-26T16:36:22.223Z,53.91
2022-11-26T16:38:50.393Z,54.03
2022-11-26T16:41:20.160Z,54.85
2022-11-26T16:43:48.096Z,54.79
2022-11-26T16:46:17.304Z,54.86
2022-11-26T16:48:45.178Z,54.92
2022-11-26T16:51:12.816Z,55.03
2022-11-26T16:53:41.961Z,55.26
2022-11-26T16:58:45.706Z,55.53
2022-11-26T17:01:13.337Z,55.59
2022-11-26T17:03:41.281Z,55.99
2022-11-26T17:06:13.479Z,56.01
2022-11-26T17:08:47.969Z,55.48
2022-11-26T17:11:17.340Z,55.80
2022-11-26T17:13:45.192Z,55.66
2022-11-26T17:16:13.961Z,55.45
2022-11-26T17:18:41.658Z,56.24
2022-11-26T17:21:09.387Z,55.49
2022-11-26T17:23:37.042Z,55.83
2022-11-26T17:26:12.124Z,55.18
2022-11-26T17:28:39.746Z,55.29
2022-11-26T17:31:07.482Z,56.13
2022-11-26T17:33:35.136Z,55.23
2022-11-26T17:36:03.569Z,55.47
2022-11-26T17:38:31.276Z,55.64
2022-11-26T17:40:58.923Z,56.06
2022-11-26T17:43:27.930Z,55.96
2022-11-26T17:45:55.715Z,56.24
2022-11-26T17:48:26.681Z,56.21
2022-11-26T17:50:54.560Z,55.96
2022-11-26T17:53:22.287Z,56.62
2022-11-26T17:55:50.123Z,56.40
2022-11-26T17:58:17.729Z,56.43
2022-11-26T18:00:46.746Z,56.94
2022-11-26T18:03:14.416Z,56.96
2022-11-26T18:05:42.587Z,56.64
2022-11-26T18:08:10.280Z,56.37
2022-11-26T18:10:40.240Z,57.23
2022-11-26T18:13:07.935Z,57.56
2022-11-26T18:15:35.725Z,57.36
2022-11-26T18:18:04.816Z,57.23
2022-11-26T18:20:34.123Z,57.60
2022-11-26T18:23:02.124Z,57.33
2022-11-26T18:25:30.079Z,57.73
2022-11-26T18:27:57.725Z,57.41
2022-11-26T18:30:25.804Z,57.18
2022-11-26T18:32:53.468Z,57.79
2022-11-26T18:35:23.597Z,58.13
2022-11-26T18:37:51.617Z,57.99
2022-11-26T18:40:19.352Z,57.23
2022-11-26T18:42:47.026Z,57.99
2022-11-26T18:45:15.651Z,57.97
2022-11-26T18:47:43.396Z,57.42
2022-11-26T18:50:13.308Z,57.25
2022-11-26T18:52:42.407Z,58.33
2022-11-26T18:55:10.480Z,58.26
2022-11-26T18:57:41.184Z,57.61
2022-11-26T19:00:10.968Z,57.65
2022-11-26T19:02:38.693Z,58.10
2022-11-26T19:05:08.558Z,58.20
2022-11-26T19:07:36.371Z,57.69
2022-11-26T19:10:06.428Z,58.23
2022-11-26T19:12:34.176Z,57.87
2022-11-26T19:15:01.944Z,57.65
2022-11-26T19:17:29.547Z,58.27
2022-11-26T19:19:57.338Z,57.50
2022-11-26T19:22:25.115Z,58.08
2022-11-26T19:24:53.203Z,57.89
2022-11-26T19:27:22.324Z,58.19
2022-11-26T19:29:50.043Z,57.91
2022-11-26T19:32:17.864Z,57.64
2022-11-26T19:34:45.557Z,57.76
2022-11-26T19:37:13.249Z,58.31
2022-11-26T19:39:41.286Z,58.07
2022-11-26T19:42:09.277Z,58.03
2022-11-26T19:44:38.419Z,58.70
2022-11-26T19:47:06.247Z,57.94
2022-11-26T19:49:34.382Z,58.20
2022-11-26T19:52:02.060Z,58.39
2022-11-26T19:54:29.724Z,57.92
2022-11-26T19:56:57.439Z,57.83
2022-11-26T19:59:25.120Z,58.13
2022-11-26T20:01:55.739Z,58.07
2022-11-26T20:04:23.783Z,58.61
2022-11-26T20:06:51.612Z,57.90
2022-11-26T20:09:19.821Z,58.51
2022-11-26T20:11:50.607Z,58.62
2022-11-26T20:14:18.372Z,58.61
2022-11-26T20:16:46.252Z,58.52
2022-11-26T20:19:15.385Z,58.04
2022-11-26T20:21:43.071Z,58.41
2022-11-26T20:24:12.770Z,58.18
2022-11-26T20:26:41.431Z,57.97
2022-11-26T20:29:10.024Z,58.07
2022-11-26T20:31:40.003Z,58.20
2022-11-26T20:34:07.854Z,58.08
2022-11-26T20:36:37.683Z,58.24
2022-11-26T20:39:05.372Z,59.01
2022-11-26T20:41:37.728Z,58.12
2022-11-26T20:44:05.620Z,58.62
2022-11-26T20:46:33.440Z,58.07
2022-11-26T20:49:01.439Z,57.63
2022-11-26T20:51:29.154Z,58.46
2022-11-26T20:54:00.214Z,58.66
2022-11-26T20:56:28.192Z,58.40
2022-11-26T20:58:56.096Z,58.38
2022-11-26T21:01:31.672Z,57.63
2022-11-26T21:04:00.825Z,58.56
2022-11-26T21:06:30.322Z,57.83
2022-11-26T21:09:00.585Z,58.51
2022-11-26T21:11:28.352Z,58.21
2022-11-26T21:13:56.180Z,57.88
2022-11-26T21:16:23.892Z,58.33
2022-11-26T21:18:53.797Z,58.33
2022-11-26T21:21:21.817Z,58.29
2022-11-26T21:23:49.519Z,58.58
2022-11-26T21:26:19.877Z,58.53
2022-11-26T21:28:51.394Z,58.35
2022-11-26T21:31:19.377Z,58.72
2022-11-26T21:33:47.499Z,58.15
2022-11-26T21:36:17.297Z,58.40
2022-11-26T21:38:48.469Z,58.30
2022-11-26T21:41:16.394Z,58.03
2022-11-26T21:43:45.962Z,58.40
2022-11-26T21:46:15.580Z,58.08
2022-11-26T21:48:43.447Z,58.47
2022-11-26T21:51:12.660Z,57.85
2022-11-26T21:53:40.626Z,57.93
2022-11-26T21:56:09.002Z,58.13
2022-11-26T21:58:37.124Z,58.05
2022-11-26T22:01:12.386Z,58.21
2022-11-26T22:03:40.898Z,58.00
2022-11-26T22:06:08.995Z,57.41
2022-11-26T22:08:36.861Z,57.84
2022-11-26T22:11:09.329Z,57.99
2022-11-26T22:13:37.088Z,57.42
2022-11-26T22:16:13.253Z,57.55
2022-11-26T22:18:44.175Z,57.02
2022-11-26T22:21:12.798Z,57.75
2022-11-26T22:23:40.818Z,57.24
2022-11-26T22:26:08.842Z,57.10
2022-11-26T22:28:38.505Z,57.42
2022-11-26T22:31:13.306Z,57.40
2022-11-26T22:33:42.847Z,57.14
2022-11-26T22:36:11.546Z,57.35
2022-11-26T22:38:39.796Z,57.39
2022-11-26T22:41:08.469Z,57.07
2022-11-26T22:43:36.233Z,56.68
2022-11-26T22:46:04.661Z,57.06
2022-11-26T22:48:32.414Z,57.16
2022-11-26T22:51:01.651Z,57.21
2022-11-26T22:53:29.545Z,56.99
2022-11-26T22:55:59.104Z,57.13
2022-11-26T22:58:27.688Z,57.18
2022-11-26T23:00:56.856Z,57.30
2022-11-26T23:03:25.160Z,57.00
2022-11-26T23:05:53.529Z,57.38
2022-11-26T23:08:22.692Z,57.45
2022-11-26T23:10:50.518Z,56.89
2022-11-26T23:13:18.432Z,57.40
2022-11-26T23:15:46.656Z,57.07
2022-11-26T23:18:15.362Z,56.98
2022-11-26T23:20:43.301Z,57.40
2022-11-26T23:23:11.094Z,57.48
2022-11-26T23:25:40.662Z,57.52
2022-11-26T23:28:08.512Z,57.44
2022-11-26T23:30:36.413Z,57.70
2022-11-26T23:33:04.114Z,58.01
2022-11-26T23:35:31.799Z,57.14
2022-11-26T23:37:59.433Z,57.56
2022-11-26T23:40:27.142Z,57.60
2022-11-26T23:42:56.298Z,56.92
2022-11-26T23:45:24.069Z,57.86
2022-11-26T23:47:51.689Z,57.04
2022-11-26T23:50:19.468Z,56.92
2022-11-26T23:52:47.136Z,57.94
2022-11-26T23:55:14.813Z,58.00
2022-11-26T23:57:42.427Z,57.48
